createdAt,value
2022-08-26T00:01:53.695Z,100447.75
2022-08-26T00:04:22.211Z,100437.00
2022-08-26T00:06:51.516Z,100442.47
2022-08-26T00:09:19.370Z,100448.47
2022-08-26T00:11:47.391Z,100449.28
2022-08-26T00:14:16.553Z,100446.06
2022-08-26T00:16:49.000Z,100446.81
2022-08-26T00:19:18.258Z,100442.75
2022-08-26T00:21:46.357Z,100435.53
2022-08-26T00:24:17.907Z,100433.03
2022-08-26T00:26:45.936Z,100438.97
2022-08-26T00:29:14.003Z,100435.28
2022-08-26T00:31:45.140Z,100436.41
2022-08-26T00:34:14.142Z,100433.69
2022-08-26T00:36:43.158Z,100448.88
2022-08-26T00:39:11.197Z,100459.03
2022-08-26T00:41:41.691Z,100456.44
2022-08-26T00:44:10.386Z,100458.91
2022-08-26T00:46:46.622Z,100455.38
2022-08-26T00:49:18.301Z,100470.16
2022-08-26T00:51:50.710Z,100471.13
2022-08-26T00:54:21.526Z,100471.97
2022-08-26T00:56:55.646Z,100468.75
2022-08-26T00:59:24.876Z,100473.28
2022-08-26T01:01:53.287Z,100474.88
2022-08-26T01:04:23.619Z,100470.88
2022-08-26T01:06:55.081Z,100472.47
2022-08-26T01:09:23.819Z,100467.25
2022-08-26T01:11:58.097Z,100468.72
2022-08-26T01:14:29.913Z,100459.88
2022-08-26T01:16:57.720Z,100466.44
2022-08-26T01:19:32.731Z,100463.53
2022-08-26T01:22:02.942Z,100459.53
2022-08-26T01:24:32.664Z,100461.94
2022-08-26T01:27:05.076Z,100463.16
2022-08-26T01:29:35.478Z,100446.84
2022-08-26T01:32:05.278Z,100450.25
2022-08-26T01:34:36.127Z,100456.69
2022-08-26T01:37:07.416Z,100454.94
2022-08-26T01:39:37.985Z,100455.59
2022-08-26T01:42:11.537Z,100459.44
2022-08-26T01:44:44.940Z,100468.50
2022-08-26T01:47:16.052Z,100477.03
2022-08-26T01:49:49.363Z,100476.50
2022-08-26T01:52:27.611Z,100471.56
2022-08-26T01:55:00.597Z,100484.22
2022-08-26T01:57:29.499Z,100495.03
2022-08-26T02:00:00.513Z,100491.59
2022-08-26T02:02:28.921Z,100496.56
2022-08-26T02:05:00.944Z,100501.25
2022-08-26T02:07:29.743Z,100497.00
2022-08-26T02:09:58.954Z,100499.41
2022-08-26T02:12:28.362Z,100505.72
2022-08-26T02:14:59.575Z,100514.72
2022-08-26T02:17:38.284Z,100516.41
2022-08-26T02:20:13.106Z,100515.00
2022-08-26T02:22:45.096Z,100516.91
2022-08-26T02:25:21.525Z,100527.81
2022-08-26T02:27:51.044Z,100525.69
2022-08-26T02:30:21.854Z,100524.91
2022-08-26T02:32:51.756Z,100517.88
2022-08-26T02:35:21.463Z,100519.84
2022-08-26T02:37:49.628Z,100518.41
2022-08-26T02:40:21.448Z,100513.47
2022-08-26T02:42:49.867Z,100514.75
2022-08-26T02:45:23.121Z,100512.41
2022-08-26T02:47:51.817Z,100518.72
2022-08-26T02:50:20.991Z,100529.47
2022-08-26T02:52:49.333Z,100523.34
2022-08-26T02:55:19.550Z,100525.47
2022-08-26T02:57:47.270Z,100519.91
2022-08-26T03:00:16.172Z,100523.34
2022-08-26T03:02:43.893Z,100519.25
2022-08-26T03:05:12.009Z,100519.25
2022-08-26T03:07:40.311Z,100520.50
2022-08-26T03:10:09.217Z,100516.34
2022-08-26T03:12:38.326Z,100518.81
2022-08-26T03:15:16.487Z,100514.31
2022-08-26T03:17:47.407Z,100518.03
2022-08-26T03:20:15.759Z,100517.97
2022-08-26T03:22:45.298Z,100516.88
2022-08-26T03:25:14.981Z,100519.34
2022-08-26T03:27:44.499Z,100516.56
2022-08-26T03:30:30.874Z,100519.47
2022-08-26T03:32:58.807Z,100520.94
2022-08-26T03:35:27.025Z,100523.19
2022-08-26T03:37:55.439Z,100530.16
2022-08-26T03:40:23.863Z,100531.97
2022-08-26T03:42:58.561Z,100527.00
2022-08-26T03:45:28.095Z,100518.78
2022-08-26T03:47:56.011Z,100528.13
2022-08-26T03:50:27.093Z,100528.91
2022-08-26T03:52:56.006Z,100530.16
2022-08-26T03:55:26.961Z,100529.16
2022-08-26T03:57:55.401Z,100536.16
2022-08-26T04:00:24.934Z,100531.84
2022-08-26T04:02:53.721Z,100529.00
2022-08-26T04:05:23.420Z,100542.59
2022-08-26T04:07:51.267Z,100538.50
2022-08-26T04:10:22.090Z,100543.81
2022-08-26T04:12:56.617Z,100540.69
2022-08-26T04:15:29.065Z,100536.91
2022-08-26T04:17:57.493Z,100533.53
2022-08-26T04:20:25.725Z,100541.13
2022-08-26T04:22:53.833Z,100539.22
2022-08-26T04:25:22.445Z,100541.44
2022-08-26T04:27:51.967Z,100541.88
2022-08-26T04:30:20.079Z,100553.72
2022-08-26T04:32:50.444Z,100554.69
2022-08-26T04:35:20.866Z,100553.44
2022-08-26T04:37:53.334Z,100550.69
2022-08-26T04:40:21.570Z,100567.06
2022-08-26T04:42:50.344Z,100552.16
2022-08-26T04:45:18.853Z,100560.06
2022-08-26T04:47:56.313Z,100555.03
2022-08-26T04:50:25.812Z,100561.31
2022-08-26T04:52:55.302Z,100563.78
2022-08-26T04:55:37.335Z,100557.63
2022-08-26T04:58:10.245Z,100567.34
2022-08-26T05:00:39.203Z,100572.66
2022-08-26T05:03:10.253Z,100577.03
2022-08-26T05:05:40.152Z,100569.88
2022-08-26T05:08:08.337Z,100583.47
2022-08-26T05:10:40.942Z,100580.41
2022-08-26T05:13:11.188Z,100591.66
2022-08-26T05:15:40.550Z,100585.00
2022-08-26T05:18:10.478Z,100582.28
2022-08-26T05:20:41.586Z,100584.66
2022-08-26T05:23:09.978Z,100586.22
2022-08-26T05:25:40.415Z,100580.44
2022-08-26T05:28:08.320Z,100579.63
2022-08-26T05:30:36.831Z,100587.66
2022-08-26T05:33:15.043Z,100591.75
2022-08-26T05:35:43.359Z,100586.94
2022-08-26T05:39:10.809Z,100587.16
2022-08-26T05:41:42.084Z,100588.13
2022-08-26T05:44:20.998Z,100596.28
2022-08-26T05:46:51.232Z,100595.97
2022-08-26T05:49:51.864Z,100588.47
2022-08-26T05:52:21.415Z,100598.13
2022-08-26T05:54:53.471Z,100594.25
2022-08-26T05:57:21.097Z,100598.28
2022-08-26T05:59:51.145Z,100600.78
2022-08-26T06:02:18.859Z,100600.16
2022-08-26T06:04:47.390Z,100605.69
2022-08-26T06:07:16.895Z,100595.00
2022-08-26T06:09:47.514Z,100597.16
2022-08-26T06:12:15.805Z,100596.94
2022-08-26T06:14:46.353Z,100603.69
2022-08-26T06:17:16.659Z,100594.56
2022-08-26T06:19:45.464Z,100600.56
2022-08-26T06:22:27.164Z,100596.69
2022-08-26T06:25:13.577Z,100607.06
2022-08-26T06:27:41.390Z,100602.25
2022-08-26T06:30:10.400Z,100607.03
2022-08-26T06:32:38.007Z,100607.22
2022-08-26T06:35:06.218Z,100616.06
2022-08-26T06:37:39.643Z,100612.13
2022-08-26T06:40:11.525Z,100624.16
2022-08-26T06:42:39.190Z,100622.59
2022-08-26T06:45:07.160Z,100618.78
2022-08-26T06:47:36.274Z,100621.31
2022-08-26T06:50:03.881Z,100624.25
2022-08-26T06:52:31.492Z,100621.41
2022-08-26T06:54:59.007Z,100620.59
2022-08-26T06:57:28.522Z,100620.16
2022-08-26T06:59:59.226Z,100627.41
2022-08-26T07:02:28.602Z,100626.38
2022-08-26T07:04:56.799Z,100631.66
2022-08-26T07:07:24.461Z,100624.94
2022-08-26T07:09:52.733Z,100629.75
2022-08-26T07:12:20.406Z,100626.19
2022-08-26T07:14:49.505Z,100635.03
2022-08-26T07:17:17.329Z,100629.59
2022-08-26T07:19:48.615Z,100637.69
2022-08-26T07:22:17.328Z,100630.56
2022-08-26T07:24:44.964Z,100631.00
2022-08-26T07:27:14.259Z,100637.00
2022-08-26T07:29:43.462Z,100632.63
2022-08-26T07:32:13.267Z,100633.84
2022-08-26T07:34:41.814Z,100632.28
2022-08-26T07:37:10.207Z,100639.09
2022-08-26T07:39:37.900Z,100639.88
2022-08-26T07:42:08.553Z,100647.09
2022-08-26T07:44:36.320Z,100646.69
2022-08-26T07:47:03.899Z,100656.69
2022-08-26T07:49:48.349Z,100652.69
2022-08-26T07:52:25.334Z,100651.22
2022-08-26T07:54:54.165Z,100662.06
2022-08-26T07:57:21.976Z,100665.00
2022-08-26T07:59:52.235Z,100662.25
2022-08-26T08:02:22.799Z,100664.25
2022-08-26T08:04:52.283Z,100666.72
2022-08-26T08:07:20.173Z,100659.91
2022-08-26T08:09:49.416Z,100666.66
2022-08-26T08:12:17.043Z,100661.06
2022-08-26T08:14:46.856Z,100673.81
2022-08-26T08:17:15.999Z,100672.16
2022-08-26T08:19:43.652Z,100673.34
2022-08-26T08:22:17.937Z,100673.72
2022-08-26T08:24:49.944Z,100671.69
2022-08-26T08:27:23.793Z,100676.91
2022-08-26T08:29:54.149Z,100677.72
2022-08-26T08:32:21.934Z,100681.25
2022-08-26T08:34:49.413Z,100678.47
2022-08-26T08:37:18.228Z,100682.84
2022-08-26T08:39:45.721Z,100687.25
2022-08-26T08:42:27.482Z,100688.75
2022-08-26T08:44:58.806Z,100694.63
2022-08-26T08:47:30.601Z,100689.00
2022-08-26T08:50:01.109Z,100683.38
2022-08-26T08:52:32.140Z,100694.09
2022-08-26T08:54:59.734Z,100694.06
2022-08-26T08:57:32.041Z,100692.94
2022-08-26T09:00:04.381Z,100683.44
2022-08-26T09:02:35.502Z,100694.72
2022-08-26T09:05:10.183Z,100695.22
2022-08-26T09:07:47.149Z,100692.09
2022-08-26T09:10:22.299Z,100690.88
2022-08-26T09:12:51.609Z,100696.88
2022-08-26T09:15:21.524Z,100694.19
2022-08-26T09:17:54.531Z,100689.00
2022-08-26T09:20:30.643Z,100694.59
2022-08-26T09:22:59.553Z,100695.41
2022-08-26T09:25:27.272Z,100699.91
2022-08-26T09:27:55.984Z,100697.53
2022-08-26T09:30:26.356Z,100702.75
2022-08-26T09:32:59.282Z,100691.53
2022-08-26T09:35:28.816Z,100702.72
2022-08-26T09:37:56.424Z,100705.06
2022-08-26T09:40:27.914Z,100695.44
2022-08-26T09:43:07.843Z,100697.94
2022-08-26T09:45:35.801Z,100700.00
2022-08-26T09:48:03.669Z,100703.28
2022-08-26T09:50:33.774Z,100706.09
2022-08-26T09:53:09.962Z,100699.22
2022-08-26T09:55:42.999Z,100700.25
2022-08-26T09:58:13.808Z,100695.59
2022-08-26T10:00:42.171Z,100694.47
2022-08-26T10:03:12.146Z,100689.84
2022-08-26T10:05:45.743Z,100684.59
2022-08-26T10:08:18.559Z,100691.47
2022-08-26T10:10:48.909Z,100683.03
2022-08-26T10:13:24.182Z,100679.97
2022-08-26T10:15:56.086Z,100680.84
2022-08-26T10:18:26.669Z,100686.91
2022-08-26T10:21:02.619Z,100684.94
2022-08-26T10:23:34.025Z,100688.94
2022-08-26T10:26:05.560Z,100677.41
2022-08-26T10:28:38.270Z,100673.47
2022-08-26T10:31:10.203Z,100678.75
2022-08-26T10:33:39.265Z,100684.41
2022-08-26T10:36:32.270Z,100685.19
2022-08-26T10:39:04.687Z,100688.44
2022-08-26T10:41:37.287Z,100678.03
2022-08-26T10:44:07.499Z,100678.00
2022-08-26T10:46:39.622Z,100675.19
2022-08-26T10:49:11.142Z,100685.19
2022-08-26T10:51:42.248Z,100683.59
2022-08-26T10:54:17.757Z,100690.81
2022-08-26T10:56:49.465Z,100682.38
2022-08-26T10:59:22.760Z,100674.78
2022-08-26T11:01:54.894Z,100681.19
2022-08-26T11:04:37.404Z,100680.00
2022-08-26T11:07:23.911Z,100681.56
2022-08-26T11:09:52.126Z,100680.28
2022-08-26T11:12:38.494Z,100685.47
2022-08-26T11:15:09.246Z,100684.25
2022-08-26T11:17:56.858Z,100684.97
2022-08-26T11:20:34.888Z,100686.19
2022-08-26T11:23:17.282Z,100684.28
2022-08-26T11:26:00.182Z,100681.09
2022-08-26T11:28:33.518Z,100685.88
2022-08-26T11:31:02.677Z,100682.63
2022-08-26T11:33:59.468Z,100674.22
2022-08-26T11:36:36.139Z,100683.00
2022-08-26T11:39:05.151Z,100676.88
2022-08-26T11:41:34.463Z,100669.47
2022-08-26T11:44:05.484Z,100674.94
2022-08-26T11:46:37.583Z,100671.22
2022-08-26T11:49:06.429Z,100664.69
2022-08-26T11:51:38.192Z,100657.00
2022-08-26T11:54:12.314Z,100666.69
2022-08-26T11:56:41.936Z,100662.81
2022-08-26T12:02:13.853Z,100667.34
2022-08-26T12:04:44.120Z,100665.09
2022-08-26T12:07:12.738Z,100671.31
2022-08-26T12:09:51.912Z,100669.34
2022-08-26T12:12:24.303Z,100665.81
2022-08-26T12:15:06.214Z,100663.44
2022-08-26T12:17:35.154Z,100665.69
2022-08-26T12:20:06.730Z,100661.41
2022-08-26T12:22:35.942Z,100661.31
2022-08-26T12:25:05.058Z,100657.81
2022-08-26T12:27:33.565Z,100662.84
2022-08-26T12:30:03.591Z,100655.66
2022-08-26T12:32:36.286Z,100656.75
2022-08-26T12:37:39.709Z,100649.50
2022-08-26T12:40:28.874Z,100655.06
2022-08-26T12:42:57.229Z,100657.44
2022-08-26T12:45:28.494Z,100661.22
2022-08-26T12:47:59.687Z,100660.38
2022-08-26T12:50:29.542Z,100649.63
2022-08-26T12:52:59.781Z,100654.44
2022-08-26T12:55:35.509Z,100656.91
2022-08-26T12:58:13.617Z,100645.16
2022-08-26T13:00:42.068Z,100657.22
2022-08-26T13:03:24.522Z,100650.75
2022-08-26T13:05:54.133Z,100642.50
2022-08-26T13:08:26.544Z,100650.09
2022-08-26T13:11:03.053Z,100636.69
2022-08-26T13:13:30.665Z,100637.94
2022-08-26T13:15:58.911Z,100637.09
2022-08-26T13:18:26.594Z,100639.91
2022-08-26T13:20:55.509Z,100629.56
2022-08-26T13:23:24.118Z,100635.25
2022-08-26T13:25:52.623Z,100637.75
2022-08-26T13:28:20.151Z,100634.72
2022-08-26T13:30:49.649Z,100639.16
2022-08-26T13:33:18.462Z,100639.59
2022-08-26T13:35:46.172Z,100633.19
2022-08-26T13:38:18.608Z,100635.59
2022-08-26T13:41:02.704Z,100642.00
2022-08-26T13:43:30.504Z,100638.00
2022-08-26T13:45:58.010Z,100637.59
2022-08-26T13:48:26.220Z,100643.59
2022-08-26T13:50:53.834Z,100643.97
2022-08-26T13:53:22.842Z,100642.75
2022-08-26T13:55:50.472Z,100647.94
2022-08-26T13:58:18.267Z,100647.53
2022-08-26T14:00:45.925Z,100651.53
2022-08-26T14:03:14.579Z,100647.88
2022-08-26T14:05:42.108Z,100648.19
2022-08-26T14:08:10.818Z,100641.72
2022-08-26T14:10:39.803Z,100642.63
2022-08-26T14:13:07.596Z,100640.25
2022-08-26T14:15:35.852Z,100638.66
2022-08-26T14:18:04.349Z,100640.28
2022-08-26T14:20:34.763Z,100643.44
2022-08-26T14:23:13.738Z,100644.97
2022-08-26T14:25:43.396Z,100644.50
2022-08-26T14:28:11.992Z,100636.09
2022-08-26T14:30:40.929Z,100637.75
2022-08-26T14:33:11.416Z,100636.53
2022-08-26T14:35:41.427Z,100644.22
2022-08-26T14:38:16.544Z,100651.91
2022-08-26T14:40:46.066Z,100659.16
2022-08-26T14:43:15.180Z,100666.00
2022-08-26T14:45:43.884Z,100665.63
2022-08-26T14:48:11.588Z,100664.03
2022-08-26T14:50:39.127Z,100660.41
2022-08-26T14:53:24.006Z,100657.22
2022-08-26T14:55:52.881Z,100650.00
2022-08-26T14:58:20.430Z,100648.38
2022-08-26T15:00:50.753Z,100653.19
2022-08-26T15:05:50.860Z,100637.19
2022-08-26T15:08:18.512Z,100643.59
2022-08-26T15:10:45.980Z,100635.56
2022-08-26T15:13:14.913Z,100642.75
2022-08-26T15:15:42.536Z,100640.34
2022-08-26T15:18:10.352Z,100640.72
2022-08-26T15:20:38.242Z,100637.53
2022-08-26T15:23:07.353Z,100637.91
2022-08-26T15:25:35.247Z,100633.53
2022-08-26T15:28:02.965Z,100636.75
2022-08-26T15:30:32.006Z,100635.56
2022-08-26T15:32:59.548Z,100638.78
2022-08-26T15:35:27.190Z,100639.16
2022-08-26T15:37:54.802Z,100636.75
2022-08-26T15:40:22.427Z,100637.13
2022-08-26T15:42:57.487Z,100626.66
2022-08-26T15:45:26.118Z,100635.03
2022-08-26T15:48:11.147Z,100629.84
2022-08-26T15:50:49.458Z,100630.63
2022-08-26T15:53:17.360Z,100628.22
2022-08-26T15:55:44.989Z,100636.56
2022-08-26T15:58:12.489Z,100630.50
2022-08-26T16:00:41.001Z,100642.41
2022-08-26T16:03:09.912Z,100626.75
2022-08-26T16:05:37.592Z,100634.97
2022-08-26T16:08:06.282Z,100636.84
2022-08-26T16:10:34.109Z,100639.03
2022-08-26T16:13:01.890Z,100644.13
2022-08-26T16:15:29.394Z,100652.78
2022-08-26T16:17:59.713Z,100642.31
2022-08-26T16:20:28.688Z,100644.28
2022-08-26T16:22:56.297Z,100638.22
2022-08-26T16:25:24.027Z,100647.75
2022-08-26T16:27:52.384Z,100654.94
2022-08-26T16:30:20.633Z,100641.03
2022-08-26T16:32:48.654Z,100647.81
2022-08-26T16:35:16.772Z,100640.94
2022-08-26T16:37:45.780Z,100646.16
2022-08-26T16:40:13.429Z,100656.78
2022-08-26T16:42:40.986Z,100648.72
2022-08-26T16:45:09.001Z,100656.94
2022-08-26T16:47:36.607Z,100660.19
2022-08-26T16:50:04.318Z,100660.53
2022-08-26T16:52:31.918Z,100670.00
2022-08-26T16:55:01.641Z,100678.41
2022-08-26T16:57:29.250Z,100679.13
2022-08-26T16:59:56.861Z,100685.75
2022-08-26T17:02:24.490Z,100674.94
2022-08-26T17:04:52.965Z,100677.34
2022-08-26T17:07:20.534Z,100681.25
2022-08-26T17:09:48.205Z,100689.94
2022-08-26T17:12:17.318Z,100685.13
2022-08-26T17:14:45.802Z,100675.91
2022-08-26T17:17:13.446Z,100680.31
2022-08-26T17:19:47.109Z,100685.06
2022-08-26T17:22:15.362Z,100681.09
2022-08-26T17:24:43.072Z,100693.78
2022-08-26T17:27:10.780Z,100692.19
2022-08-26T17:29:39.776Z,100696.09
2022-08-26T17:32:07.408Z,100704.13
2022-08-26T17:34:35.014Z,100705.19
2022-08-26T17:37:02.724Z,100703.16
2022-08-26T17:39:30.337Z,100698.66
2022-08-26T17:41:57.945Z,100694.25
2022-08-26T17:44:25.478Z,100703.78
2022-08-26T17:46:54.735Z,100700.50
2022-08-26T17:49:23.279Z,100698.66
2022-08-26T17:51:50.991Z,100695.00
2022-08-26T17:54:18.519Z,100693.38
2022-08-26T17:56:46.111Z,100683.75
2022-08-26T17:59:13.626Z,100696.00
2022-08-26T18:01:41.220Z,100692.34
2022-08-26T18:04:10.326Z,100698.34
2022-08-26T18:06:39.239Z,100692.78
2022-08-26T18:09:06.868Z,100689.06
2022-08-26T18:11:34.455Z,100688.81
2022-08-26T18:14:02.103Z,100688.31
2022-08-26T18:16:34.107Z,100692.72
2022-08-26T18:19:01.604Z,100693.78
2022-08-26T18:21:30.528Z,100689.25
2022-08-26T18:23:58.049Z,100696.03
2022-08-26T18:26:28.041Z,100704.75
2022-08-26T18:28:55.860Z,100702.34
2022-08-26T18:31:23.410Z,100711.44
2022-08-26T18:33:51.277Z,100707.03
2022-08-26T18:36:19.786Z,100702.22
2022-08-26T18:38:50.302Z,100700.47
2022-08-26T18:41:19.211Z,100702.38
2022-08-26T18:43:46.819Z,100696.38
2022-08-26T18:46:14.485Z,100703.91
2022-08-26T18:48:42.041Z,100701.84
2022-08-26T18:51:12.499Z,100698.34
2022-08-26T18:53:41.890Z,100703.44
2022-08-26T18:56:11.666Z,100704.28
2022-08-26T18:58:39.998Z,100702.63
2022-08-26T19:01:07.858Z,100702.22
2022-08-26T19:03:35.414Z,100706.53
2022-08-26T19:06:02.917Z,100704.72
2022-08-26T19:08:30.534Z,100712.69
2022-08-26T19:10:58.155Z,100718.25
2022-08-26T19:13:27.372Z,100722.66
2022-08-26T19:15:55.361Z,100714.94
2022-08-26T19:18:22.879Z,100720.88
2022-08-26T19:20:50.483Z,100719.53
2022-08-26T19:23:31.589Z,100724.38
2022-08-26T19:26:00.224Z,100730.38
2022-08-26T19:28:29.216Z,100736.38
2022-08-26T19:30:56.922Z,100735.81
2022-08-26T19:33:24.515Z,100731.28
2022-08-26T19:35:52.548Z,100729.97
2022-08-26T19:38:20.157Z,100726.28
2022-08-26T19:40:47.984Z,100729.38
2022-08-26T19:43:15.482Z,100723.38
2022-08-26T19:45:45.746Z,100719.94
2022-08-26T19:48:13.404Z,100718.25
2022-08-26T19:50:42.220Z,100714.94
2022-08-26T19:53:10.131Z,100724.03
2022-08-26T19:55:37.641Z,100729.72
2022-08-26T19:58:07.483Z,100733.75
2022-08-26T20:00:36.659Z,100738.44
2022-08-26T20:03:05.707Z,100739.97
2022-08-26T20:05:33.383Z,100744.00
2022-08-26T20:08:01.000Z,100744.06
2022-08-26T20:10:28.906Z,100737.63
2022-08-26T20:12:56.469Z,100735.22
2022-08-26T20:15:24.125Z,100743.47
2022-08-26T20:17:52.321Z,100744.28
2022-08-26T20:20:38.671Z,100742.03
2022-08-26T20:23:06.278Z,100745.41
2022-08-26T20:25:34.370Z,100739.66
2022-08-26T20:28:02.410Z,100744.75
2022-08-26T20:30:30.001Z,100754.97
2022-08-26T20:32:57.510Z,100753.22
2022-08-26T20:35:26.497Z,100753.22
2022-08-26T20:37:54.126Z,100762.72
2022-08-26T20:40:22.534Z,100756.88
2022-08-26T20:42:50.245Z,100763.97
2022-08-26T20:45:17.890Z,100767.63
2022-08-26T20:47:45.404Z,100769.69
2022-08-26T20:50:12.999Z,100763.88
2022-08-26T20:52:41.998Z,100776.50
2022-08-26T20:55:10.540Z,100771.66
2022-08-26T20:57:38.114Z,100773.84
2022-08-26T21:00:06.322Z,100773.91
2022-08-26T21:02:33.848Z,100781.81
2022-08-26T21:05:01.693Z,100780.25
2022-08-26T21:07:30.179Z,100773.63
2022-08-26T21:09:59.441Z,100785.91
2022-08-26T21:12:26.978Z,100785.25
2022-08-26T21:14:54.944Z,100779.16
2022-08-26T21:17:22.421Z,100781.03
2022-08-26T21:19:49.933Z,100788.03
2022-08-26T21:22:17.584Z,100788.59
2022-08-26T21:24:45.137Z,100790.72
2022-08-26T21:27:14.341Z,100787.47
2022-08-26T21:29:49.065Z,100792.66
2022-08-26T21:32:19.575Z,100785.38
2022-08-26T21:34:47.175Z,100795.13
2022-08-26T21:37:16.755Z,100805.44
2022-08-26T21:39:44.616Z,100804.19
2022-08-26T21:42:12.179Z,100798.31
2022-08-26T21:44:41.085Z,100800.97
2022-08-26T21:47:08.743Z,100807.31
2022-08-26T21:49:36.440Z,100805.00
2022-08-26T21:52:04.626Z,100805.94
2022-08-26T21:54:32.368Z,100809.63
2022-08-26T21:56:59.972Z,100811.25
2022-08-26T21:59:27.583Z,100799.94
2022-08-26T22:01:57.092Z,100814.13
2022-08-26T22:04:24.826Z,100808.47
2022-08-26T22:06:53.418Z,100806.72
2022-08-26T22:09:23.053Z,100811.47
2022-08-26T22:11:51.214Z,100810.09
2022-08-26T22:14:20.850Z,100809.38
2022-08-26T22:16:50.212Z,100803.84
2022-08-26T22:19:20.985Z,100799.00
2022-08-26T22:21:52.184Z,100805.22
2022-08-26T22:24:21.178Z,100806.16
2022-08-26T22:26:49.326Z,100806.25
2022-08-26T22:29:17.115Z,100802.59
2022-08-26T22:31:44.865Z,100803.41
2022-08-26T22:34:15.137Z,100797.75
2022-08-26T22:36:45.346Z,100800.88
2022-08-26T22:39:13.722Z,100799.25
2022-08-26T22:41:41.969Z,100793.94
2022-08-26T22:44:10.284Z,100796.13
2022-08-26T22:46:38.634Z,100789.78
2022-08-26T22:49:08.273Z,100796.94
2022-08-26T22:51:35.924Z,100794.41
2022-08-26T22:54:04.866Z,100796.59
2022-08-26T22:56:32.733Z,100792.09
2022-08-26T22:59:00.310Z,100792.56
2022-08-26T23:01:28.023Z,100803.84
2022-08-26T23:03:55.666Z,100802.13
2022-08-26T23:06:23.290Z,100798.41
2022-08-26T23:08:50.853Z,100799.69
2022-08-26T23:11:19.923Z,100802.00
2022-08-26T23:13:47.514Z,100798.19
2022-08-26T23:16:15.078Z,100799.13
2022-08-26T23:18:42.830Z,100795.66
2022-08-26T23:21:10.539Z,100793.22
2022-08-26T23:23:38.326Z,100792.06
2022-08-26T23:26:06.873Z,100794.84
2022-08-26T23:28:35.927Z,100791.84
2022-08-26T23:31:03.403Z,100798.53
2022-08-26T23:33:44.863Z,100799.44
2022-08-26T23:36:17.032Z,100789.19
2022-08-26T23:38:45.387Z,100794.72
2022-08-26T23:41:20.634Z,100796.91
2022-08-26T23:43:49.800Z,100796.00
2022-08-26T23:46:17.574Z,100788.38
2022-08-26T23:48:45.494Z,100791.28
2022-08-26T23:51:30.482Z,100790.59
2022-08-26T23:53:58.593Z,100793.78
2022-08-26T23:56:26.577Z,100793.78
2022-08-26T23:58:56.113Z,100796.13
